Time;durP1;ratioP1;P1;durP2;ratioP2;P2;SDS_P1;SDS_P2;PMS_P1;PMS_P2;Temp;Humidity;BMP_temperature;BMP_pressure;BME280_temperature;BME280_humidity;BME280_pressure;Samples;Min_cycle;Max_cycle;Signal;HPM_P1;HPM_P2
2020/12/24 00:00:27;;;;;;;11.95;7.45;;;;;;;20.36;55.51074;94897.01;;;;
2020/12/24 00:01:27;;;;;;;11.95;7.45;;;;;;;20.36;55.51074;94897.01;;;;
2020/12/24 00:02:28;;;;;;;11.95;7.45;;;;;;;20.36;55.51074;94897.01;;;;
2020/12/24 00:03:28;;;;;;;11.95;7.45;;;;;;;20.36;55.51074;94897.01;;;;
2020/12/24 00:04:29;;;;;;;11.95;7.45;;;;;;;20.36;55.51074;94897.01;;;;
2020/12/24 00:05:29;;;;;;;11.95;7.45;;;;;;;20.36;55.51074;94897.01;;;;
2020/12/24 00:06:30;;;;;;;11.95;7.45;;;;;;;20.36;55.51074;94897.01;;;;
2020/12/24 00:07:30;;;;;;;11.95;7.45;;;;;;;20.36;55.51074;94897.01;;;;
2020/12/24 00:08:31;;;;;;;11.95;7.45;;;;;;;20.36;55.51074;94897.01;;;;
2020/12/24 00:09:31;;;;;;;11.95;7.45;;;;;;;20.36;55.51074;94897.01;;;;
2020/12/24 00:10:32;;;;;;;11.4;7.3;;;;;;;20.3;55.5791;94892.33;;;;
2020/12/24 00:11:32;;;;;;;11.4;7.3;;;;;;;20.3;55.5791;94892.33;;;;
2020/12/24 00:12:33;;;;;;;11.4;7.3;;;;;;;20.3;55.5791;94892.33;;;;
2020/12/24 00:13:33;;;;;;;11.4;7.3;;;;;;;20.3;55.5791;94892.33;;;;
2020/12/24 00:14:34;;;;;;;11.4;7.3;;;;;;;20.3;55.5791;94892.33;;;;
2020/12/24 00:15:34;;;;;;;11.4;7.3;;;;;;;20.3;55.5791;94892.33;;;;
2020/12/24 00:16:35;;;;;;;11.4;7.3;;;;;;;20.3;55.5791;94892.33;;;;
2020/12/24 00:17:35;;;;;;;11.4;7.3;;;;;;;20.3;55.5791;94892.33;;;;
2020/12/24 00:18:37;;;;;;;11.4;7.3;;;;;;;20.3;55.5791;94892.33;;;;
2020/12/24 00:19:37;;;;;;;11.4;7.3;;;;;;;20.3;55.5791;94892.33;;;;
2020/12/24 00:20:38;;;;;;;11.4;7.3;;;;;;;20.3;55.5791;94892.33;;;;
2020/12/24 00:21:38;;;;;;;12.45;7.55;;;;;;;20.28;55.44434;94862.06;;;;
2020/12/24 00:22:39;;;;;;;12.45;7.55;;;;;;;20.28;55.44434;94862.06;;;;
2020/12/24 00:23:39;;;;;;;12.45;7.55;;;;;;;20.28;55.44434;94862.06;;;;
2020/12/24 00:24:40;;;;;;;12.45;7.55;;;;;;;20.28;55.44434;94862.06;;;;
2020/12/24 00:25:40;;;;;;;12.45;7.55;;;;;;;20.28;55.44434;94862.06;;;;
2020/12/24 00:26:40;;;;;;;12.45;7.55;;;;;;;20.28;55.44434;94862.06;;;;
2020/12/24 00:27:41;;;;;;;12.45;7.55;;;;;;;20.28;55.44434;94862.06;;;;
2020/12/24 00:28:42;;;;;;;12.45;7.55;;;;;;;20.28;55.44434;94862.06;;;;
2020/12/24 00:29:43;;;;;;;12.45;7.55;;;;;;;20.28;55.44434;94862.06;;;;
2020/12/24 00:30:43;;;;;;;12.45;7.55;;;;;;;20.28;55.44434;94862.06;;;;
2020/12/24 00:31:44;;;;;;;12.45;7.55;;;;;;;20.28;55.44434;94862.06;;;;
2020/12/24 00:32:45;;;;;;;12.45;7.55;;;;;;;20.28;55.44434;94862.06;;;;
2020/12/24 00:33:45;;;;;;;12.45;7.55;;;;;;;20.28;55.44434;94862.06;;;;
2020/12/24 00:34:46;;;;;;;12.45;7.55;;;;;;;20.28;55.44434;94862.06;;;;
2020/12/24 00:35:46;;;;;;;12.45;7.55;;;;;;;20.28;55.44434;94862.06;;;;
2020/12/24 00:36:46;;;;;;;12.45;7.55;;;;;;;20.28;55.44434;94862.06;;;;
2020/12/24 00:37:47;;;;;;;12.45;7.55;;;;;;;20.28;55.44434;94862.06;;;;
2020/12/24 00:38:47;;;;;;;12.45;7.55;;;;;;;20.28;55.44434;94862.06;;;;
2020/12/24 00:39:48;;;;;;;12.45;7.55;;;;;;;20.28;55.44434;94862.06;;;;
2020/12/24 00:40:48;;;;;;;12.45;7.55;;;;;;;20.28;55.44434;94862.06;;;;
2020/12/24 00:41:51;;;;;;;12.45;7.55;;;;;;;20.28;55.44434;94862.06;;;;
2020/12/24 00:42:52;;;;;;;10.25;7.15;;;;;;;20.21;55.44727;94871.67;;;;
2020/12/24 00:43:52;;;;;;;10.25;7.15;;;;;;;20.21;55.44727;94871.67;;;;
2020/12/24 00:44:53;;;;;;;10.25;7.15;;;;;;;20.21;55.44727;94871.67;;;;
2020/12/24 00:45:53;;;;;;;10.25;7.15;;;;;;;20.21;55.44727;94871.67;;;;
2020/12/24 00:46:54;;;;;;;10.25;7.15;;;;;;;20.21;55.44727;94871.67;;;;
2020/12/24 00:47:54;;;;;;;10.25;7.15;;;;;;;20.21;55.44727;94871.67;;;;
2020/12/24 00:48:55;;;;;;;10.25;7.15;;;;;;;20.21;55.44727;94871.67;;;;
2020/12/24 00:49:55;;;;;;;10.25;7.15;;;;;;;20.21;55.44727;94871.67;;;;
2020/12/24 00:50:56;;;;;;;10.25;7.15;;;;;;;20.21;55.44727;94871.67;;;;
2020/12/24 00:51:56;;;;;;;10.25;7.15;;;;;;;20.21;55.44727;94871.67;;;;
2020/12/24 00:52:57;;;;;;;12;7.35;;;;;;;20.16;55.51855;94861.33;;;;
2020/12/24 00:53:57;;;;;;;12;7.35;;;;;;;20.16;55.51855;94861.33;;;;
2020/12/24 00:54:58;;;;;;;12;7.35;;;;;;;20.16;55.51855;94861.33;;;;
2020/12/24 00:55:58;;;;;;;12;7.35;;;;;;;20.16;55.51855;94861.33;;;;
2020/12/24 00:56:59;;;;;;;12;7.35;;;;;;;20.16;55.51855;94861.33;;;;
2020/12/24 00:57:59;;;;;;;12;7.35;;;;;;;20.16;55.51855;94861.33;;;;
2020/12/24 00:59:00;;;;;;;12;7.35;;;;;;;20.16;55.51855;94861.33;;;;
2020/12/24 01:00:00;;;;;;;12;7.35;;;;;;;20.16;55.51855;94861.33;;;;
2020/12/24 01:01:01;;;;;;;12;7.35;;;;;;;20.16;55.51855;94861.33;;;;
2020/12/24 01:02:01;;;;;;;12;7.35;;;;;;;20.16;55.51855;94861.33;;;;
2020/12/24 01:03:02;;;;;;;12;7.35;;;;;;;20.16;55.51855;94861.33;;;;
2020/12/24 01:04:03;;;;;;;10.9;7.3;;;;;;;20.16;55.30957;94869.02;;;;
2020/12/24 01:05:03;;;;;;;10.9;7.3;;;;;;;20.16;55.30957;94869.02;;;;
2020/12/24 01:06:05;;;;;;;10.9;7.3;;;;;;;20.16;55.30957;94869.02;;;;
2020/12/24 01:07:06;;;;;;;10.9;7.3;;;;;;;20.16;55.30957;94869.02;;;;
2020/12/24 01:08:06;;;;;;;10.9;7.3;;;;;;;20.16;55.30957;94869.02;;;;
2020/12/24 01:09:07;;;;;;;10.9;7.3;;;;;;;20.16;55.30957;94869.02;;;;
2020/12/24 01:10:07;;;;;;;10.9;7.3;;;;;;;20.16;55.30957;94869.02;;;;
2020/12/24 01:11:08;;;;;;;10.9;7.3;;;;;;;20.16;55.30957;94869.02;;;;
2020/12/24 01:12:09;;;;;;;10.9;7.3;;;;;;;20.16;55.30957;94869.02;;;;
2020/12/24 01:13:09;;;;;;;10.9;7.3;;;;;;;20.16;55.30957;94869.02;;;;
2020/12/24 01:14:10;;;;;;;10.4;7.1;;;;;;;20.11;55.43555;94875.94;;;;
2020/12/24 01:15:11;;;;;;;10.4;7.1;;;;;;;20.11;55.43555;94875.94;;;;
2020/12/24 01:16:11;;;;;;;10.4;7.1;;;;;;;20.11;55.43555;94875.94;;;;
2020/12/24 01:17:12;;;;;;;10.4;7.1;;;;;;;20.11;55.43555;94875.94;;;;
2020/12/24 01:18:12;;;;;;;10.4;7.1;;;;;;;20.11;55.43555;94875.94;;;;
2020/12/24 01:19:13;;;;;;;10.4;7.1;;;;;;;20.11;55.43555;94875.94;;;;
2020/12/24 01:20:13;;;;;;;10.4;7.1;;;;;;;20.11;55.43555;94875.94;;;;
2020/12/24 01:21:14;;;;;;;10.4;7.1;;;;;;;20.11;55.43555;94875.94;;;;
2020/12/24 01:22:14;;;;;;;10.4;7.1;;;;;;;20.11;55.43555;94875.94;;;;
2020/12/24 01:23:15;;;;;;;10.4;7.1;;;;;;;20.11;55.43555;94875.94;;;;
2020/12/24 01:24:16;;;;;;;10.4;7.1;;;;;;;20.11;55.43555;94875.94;;;;
2020/12/24 01:25:16;;;;;;;11.4;7.349999;;;;;;;20.11;55.27051;94884.75;;;;
2020/12/24 01:26:17;;;;;;;11.4;7.349999;;;;;;;20.11;55.27051;94884.75;;;;
2020/12/24 01:27:18;;;;;;;11.4;7.349999;;;;;;;20.11;55.27051;94884.75;;;;
2020/12/24 01:28:18;;;;;;;11.4;7.349999;;;;;;;20.11;55.27051;94884.75;;;;
2020/12/24 01:29:19;;;;;;;11.4;7.349999;;;;;;;20.11;55.27051;94884.75;;;;
2020/12/24 01:30:19;;;;;;;11.4;7.349999;;;;;;;20.11;55.27051;94884.75;;;;
2020/12/24 01:31:20;;;;;;;11.4;7.349999;;;;;;;20.11;55.27051;94884.75;;;;
2020/12/24 01:32:20;;;;;;;11.4;7.349999;;;;;;;20.11;55.27051;94884.75;;;;
2020/12/24 01:33:21;;;;;;;11.4;7.349999;;;;;;;20.11;55.27051;94884.75;;;;
2020/12/24 01:34:21;;;;;;;11.4;7.349999;;;;;;;20.11;55.27051;94884.75;;;;
2020/12/24 01:35:22;;;;;;;11.4;7.349999;;;;;;;20.11;55.27051;94884.75;;;;
2020/12/24 01:36:22;;;;;;;10.1;6.75;;;;;;;20.06;55.41797;94897.19;;;;
2020/12/24 01:37:23;;;;;;;10.1;6.75;;;;;;;20.06;55.41797;94897.19;;;;
2020/12/24 01:38:23;;;;;;;10.1;6.75;;;;;;;20.06;55.41797;94897.19;;;;
2020/12/24 01:39:24;;;;;;;10.1;6.75;;;;;;;20.06;55.41797;94897.19;;;;
2020/12/24 01:40:24;;;;;;;10.1;6.75;;;;;;;20.06;55.41797;94897.19;;;;
2020/12/24 01:41:25;;;;;;;10.1;6.75;;;;;;;20.06;55.41797;94897.19;;;;
2020/12/24 01:42:25;;;;;;;10.1;6.75;;;;;;;20.06;55.41797;94897.19;;;;
2020/12/24 01:43:26;;;;;;;10.1;6.75;;;;;;;20.06;55.41797;94897.19;;;;
2020/12/24 01:44:27;;;;;;;10.1;6.75;;;;;;;20.06;55.41797;94897.19;;;;
2020/12/24 01:45:27;;;;;;;10.1;6.75;;;;;;;20.06;55.41797;94897.19;;;;
2020/12/24 01:46:28;;;;;;;8.65;6.5;;;;;;;20.06;55.30762;94894.83;;;;
2020/12/24 01:47:28;;;;;;;8.65;6.5;;;;;;;20.06;55.30762;94894.83;;;;
2020/12/24 01:48:29;;;;;;;8.65;6.5;;;;;;;20.06;55.30762;94894.83;;;;
2020/12/24 01:49:30;;;;;;;8.65;6.5;;;;;;;20.06;55.30762;94894.83;;;;
2020/12/24 01:50:31;;;;;;;8.65;6.5;;;;;;;20.06;55.30762;94894.83;;;;
2020/12/24 01:51:32;;;;;;;8.65;6.5;;;;;;;20.06;55.30762;94894.83;;;;
2020/12/24 01:52:34;;;;;;;8.65;6.5;;;;;;;20.06;55.30762;94894.83;;;;
2020/12/24 01:53:36;;;;;;;8.65;6.5;;;;;;;20.06;55.30762;94894.83;;;;
2020/12/24 01:54:37;;;;;;;8.65;6.5;;;;;;;20.06;55.30762;94894.83;;;;
2020/12/24 01:55:37;;;;;;;8.65;6.5;;;;;;;20.06;55.30762;94894.83;;;;
2020/12/24 01:56:38;;;;;;;8.65;6.5;;;;;;;20.06;55.30762;94894.83;;;;
2020/12/24 01:57:39;;;;;;;9.299999;6.4;;;;;;;20.01;55.45508;94885.35;;;;
2020/12/24 01:58:40;;;;;;;9.299999;6.4;;;;;;;20.01;55.45508;94885.35;;;;
2020/12/24 01:59:40;;;;;;;9.299999;6.4;;;;;;;20.01;55.45508;94885.35;;;;
2020/12/24 02:00:41;;;;;;;9.299999;6.4;;;;;;;20.01;55.45508;94885.35;;;;
2020/12/24 02:01:42;;;;;;;9.299999;6.4;;;;;;;20.01;55.45508;94885.35;;;;
2020/12/24 02:02:44;;;;;;;9.299999;6.4;;;;;;;20.01;55.45508;94885.35;;;;
2020/12/24 02:03:44;;;;;;;9.299999;6.4;;;;;;;20.01;55.45508;94885.35;;;;
2020/12/24 02:04:45;;;;;;;9.299999;6.4;;;;;;;20.01;55.45508;94885.35;;;;
2020/12/24 02:05:45;;;;;;;9.299999;6.4;;;;;;;20.01;55.45508;94885.35;;;;
2020/12/24 02:06:46;;;;;;;9.299999;6.4;;;;;;;20.01;55.45508;94885.35;;;;
2020/12/24 02:07:48;;;;;;;9.65;6.15;;;;;;;20.01;55.25781;94879.86;;;;
2020/12/24 02:08:51;;;;;;;9.65;6.15;;;;;;;20.01;55.25781;94879.86;;;;
2020/12/24 02:09:52;;;;;;;9.65;6.15;;;;;;;20.01;55.25781;94879.86;;;;
2020/12/24 02:10:53;;;;;;;9.65;6.15;;;;;;;20.01;55.25781;94879.86;;;;
2020/12/24 02:11:53;;;;;;;9.65;6.15;;;;;;;20.01;55.25781;94879.86;;;;
2020/12/24 02:12:54;;;;;;;9.65;6.15;;;;;;;20.01;55.25781;94879.86;;;;
2020/12/24 02:13:54;;;;;;;9.65;6.15;;;;;;;20.01;55.25781;94879.86;;;;
2020/12/24 02:14:55;;;;;;;9.65;6.15;;;;;;;20.01;55.25781;94879.86;;;;
2020/12/24 02:15:55;;;;;;;9.65;6.15;;;;;;;20.01;55.25781;94879.86;;;;
2020/12/24 02:16:56;;;;;;;9.65;6.15;;;;;;;20.01;55.25781;94879.86;;;;
2020/12/24 02:17:56;;;;;;;9.65;6.15;;;;;;;20.01;55.25781;94879.86;;;;
2020/12/24 02:18:57;;;;;;;9.4;6.15;;;;;;;19.97;55.43945;94875.72;;;;
2020/12/24 02:19:57;;;;;;;9.4;6.15;;;;;;;19.97;55.43945;94875.72;;;;
2020/12/24 02:20:58;;;;;;;9.4;6.15;;;;;;;19.97;55.43945;94875.72;;;;
2020/12/24 02:21:58;;;;;;;9.4;6.15;;;;;;;19.97;55.43945;94875.72;;;;
2020/12/24 02:22:59;;;;;;;9.4;6.15;;;;;;;19.97;55.43945;94875.72;;;;
2020/12/24 02:24:00;;;;;;;9.4;6.15;;;;;;;19.97;55.43945;94875.72;;;;
2020/12/24 02:25:01;;;;;;;9.4;6.15;;;;;;;19.97;55.43945;94875.72;;;;
2020/12/24 02:26:01;;;;;;;9.4;6.15;;;;;;;19.97;55.43945;94875.72;;;;
2020/12/24 02:27:02;;;;;;;9.4;6.15;;;;;;;19.97;55.43945;94875.72;;;;
2020/12/24 02:28:04;;;;;;;9.4;6.15;;;;;;;19.97;55.43945;94875.72;;;;
2020/12/24 02:29:04;;;;;;;10;6;;;;;;;19.98;55.34082;94859.52;;;;
2020/12/24 02:30:05;;;;;;;10;6;;;;;;;19.98;55.34082;94859.52;;;;
2020/12/24 02:31:05;;;;;;;10;6;;;;;;;19.98;55.34082;94859.52;;;;
2020/12/24 02:32:07;;;;;;;10;6;;;;;;;19.98;55.34082;94859.52;;;;
2020/12/24 02:33:08;;;;;;;10;6;;;;;;;19.98;55.34082;94859.52;;;;
2020/12/24 02:34:08;;;;;;;10;6;;;;;;;19.98;55.34082;94859.52;;;;
2020/12/24 02:35:09;;;;;;;10;6;;;;;;;19.98;55.34082;94859.52;;;;
2020/12/24 02:36:09;;;;;;;10;6;;;;;;;19.98;55.34082;94859.52;;;;
2020/12/24 02:37:12;;;;;;;10;6;;;;;;;19.98;55.34082;94859.52;;;;
2020/12/24 02:38:13;;;;;;;10;6;;;;;;;19.98;55.34082;94859.52;;;;
2020/12/24 02:39:13;;;;;;;10;6;;;;;;;19.98;55.34082;94859.52;;;;
2020/12/24 02:40:14;;;;;;;8.4;5.95;;;;;;;19.93;55.40137;94844.55;;;;
2020/12/24 02:41:14;;;;;;;8.4;5.95;;;;;;;19.93;55.40137;94844.55;;;;
2020/12/24 02:42:15;;;;;;;8.4;5.95;;;;;;;19.93;55.40137;94844.55;;;;
2020/12/24 02:43:16;;;;;;;8.4;5.95;;;;;;;19.93;55.40137;94844.55;;;;
2020/12/24 02:44:16;;;;;;;8.4;5.95;;;;;;;19.93;55.40137;94844.55;;;;
2020/12/24 02:45:17;;;;;;;8.4;5.95;;;;;;;19.93;55.40137;94844.55;;;;
2020/12/24 02:46:17;;;;;;;8.4;5.95;;;;;;;19.93;55.40137;94844.55;;;;
2020/12/24 02:47:18;;;;;;;8.4;5.95;;;;;;;19.93;55.40137;94844.55;;;;
2020/12/24 02:48:18;;;;;;;8.4;5.95;;;;;;;19.93;55.40137;94844.55;;;;
2020/12/24 02:49:19;;;;;;;8.4;5.95;;;;;;;19.93;55.40137;94844.55;;;;
2020/12/24 02:50:19;;;;;;;8.4;5.95;;;;;;;19.93;55.40137;94844.55;;;;
2020/12/24 02:51:20;;;;;;;8.4;5.95;;;;;;;19.93;55.40137;94844.55;;;;
2020/12/24 02:52:20;;;;;;;8.4;5.95;;;;;;;19.93;55.40137;94844.55;;;;
2020/12/24 02:53:21;;;;;;;8.4;5.95;;;;;;;19.93;55.40137;94844.55;;;;
2020/12/24 02:54:21;;;;;;;8.4;5.95;;;;;;;19.93;55.40137;94844.55;;;;
2020/12/24 02:55:22;;;;;;;8.4;5.95;;;;;;;19.93;55.40137;94844.55;;;;
2020/12/24 02:56:22;;;;;;;8.4;5.95;;;;;;;19.93;55.40137;94844.55;;;;
2020/12/24 02:57:23;;;;;;;8.4;5.95;;;;;;;19.93;55.40137;94844.55;;;;
2020/12/24 02:58:23;;;;;;;8.4;5.95;;;;;;;19.93;55.40137;94844.55;;;;
2020/12/24 02:59:24;;;;;;;8.4;5.95;;;;;;;19.93;55.40137;94844.55;;;;
2020/12/24 03:00:24;;;;;;;8.4;5.95;;;;;;;19.93;55.40137;94844.55;;;;
2020/12/24 03:01:25;;;;;;;6.9;5.6;;;;;;;19.9;55.26563;94819.1;;;;
2020/12/24 03:02:25;;;;;;;6.9;5.6;;;;;;;19.9;55.26563;94819.1;;;;
2020/12/24 03:03:26;;;;;;;6.9;5.6;;;;;;;19.9;55.26563;94819.1;;;;
2020/12/24 03:04:27;;;;;;;6.9;5.6;;;;;;;19.9;55.26563;94819.1;;;;
2020/12/24 03:05:27;;;;;;;6.9;5.6;;;;;;;19.9;55.26563;94819.1;;;;
2020/12/24 03:06:28;;;;;;;6.9;5.6;;;;;;;19.9;55.26563;94819.1;;;;
2020/12/24 03:07:28;;;;;;;6.9;5.6;;;;;;;19.9;55.26563;94819.1;;;;
2020/12/24 03:08:29;;;;;;;6.9;5.6;;;;;;;19.9;55.26563;94819.1;;;;
2020/12/24 03:09:29;;;;;;;6.9;5.6;;;;;;;19.9;55.26563;94819.1;;;;
2020/12/24 03:10:30;;;;;;;6.9;5.6;;;;;;;19.9;55.26563;94819.1;;;;
2020/12/24 03:11:30;;;;;;;6.75;4.9;;;;;;;19.91;55.2666;94815.67;;;;
2020/12/24 03:12:31;;;;;;;6.75;4.9;;;;;;;19.91;55.2666;94815.67;;;;
2020/12/24 03:13:31;;;;;;;6.75;4.9;;;;;;;19.91;55.2666;94815.67;;;;
2020/12/24 03:14:32;;;;;;;6.75;4.9;;;;;;;19.91;55.2666;94815.67;;;;
2020/12/24 03:15:32;;;;;;;6.75;4.9;;;;;;;19.91;55.2666;94815.67;;;;
2020/12/24 03:16:33;;;;;;;6.75;4.9;;;;;;;19.91;55.2666;94815.67;;;;
2020/12/24 03:17:33;;;;;;;6.75;4.9;;;;;;;19.91;55.2666;94815.67;;;;
2020/12/24 03:18:34;;;;;;;6.75;4.9;;;;;;;19.91;55.2666;94815.67;;;;
2020/12/24 03:19:34;;;;;;;6.75;4.9;;;;;;;19.91;55.2666;94815.67;;;;
2020/12/24 03:20:34;;;;;;;6.75;4.9;;;;;;;19.91;55.2666;94815.67;;;;
2020/12/24 03:21:35;;;;;;;6.75;4.9;;;;;;;19.91;55.2666;94815.67;;;;
2020/12/24 03:22:37;;;;;;;7.1;5;;;;;;;19.87;55.30664;94814.1;;;;
2020/12/24 03:23:38;;;;;;;7.1;5;;;;;;;19.87;55.30664;94814.1;;;;
2020/12/24 03:24:38;;;;;;;7.1;5;;;;;;;19.87;55.30664;94814.1;;;;
2020/12/24 03:25:39;;;;;;;7.1;5;;;;;;;19.87;55.30664;94814.1;;;;
2020/12/24 03:26:39;;;;;;;7.1;5;;;;;;;19.87;55.30664;94814.1;;;;
2020/12/24 03:27:40;;;;;;;7.1;5;;;;;;;19.87;55.30664;94814.1;;;;
2020/12/24 03:28:40;;;;;;;7.1;5;;;;;;;19.87;55.30664;94814.1;;;;
2020/12/24 03:29:41;;;;;;;7.1;5;;;;;;;19.87;55.30664;94814.1;;;;
2020/12/24 03:30:41;;;;;;;7.1;5;;;;;;;19.87;55.30664;94814.1;;;;
2020/12/24 03:31:42;;;;;;;7.1;5;;;;;;;19.87;55.30664;94814.1;;;;
2020/12/24 03:32:43;;;;;;;7.1;5;;;;;;;19.87;55.30664;94814.1;;;;
2020/12/24 03:33:43;;;;;;;6.400001;4.699999;;;;;;;19.88;55.1875;94807.08;;;;
2020/12/24 03:34:44;;;;;;;6.400001;4.699999;;;;;;;19.88;55.1875;94807.08;;;;
2020/12/24 03:35:44;;;;;;;6.400001;4.699999;;;;;;;19.88;55.1875;94807.08;;;;
2020/12/24 03:36:45;;;;;;;6.400001;4.699999;;;;;;;19.88;55.1875;94807.08;;;;
2020/12/24 03:37:45;;;;;;;6.400001;4.699999;;;;;;;19.88;55.1875;94807.08;;;;
2020/12/24 03:38:46;;;;;;;6.400001;4.699999;;;;;;;19.88;55.1875;94807.08;;;;
2020/12/24 03:39:46;;;;;;;6.400001;4.699999;;;;;;;19.88;55.1875;94807.08;;;;
2020/12/24 03:40:47;;;;;;;6.400001;4.699999;;;;;;;19.88;55.1875;94807.08;;;;
2020/12/24 03:41:47;;;;;;;6.400001;4.699999;;;;;;;19.88;55.1875;94807.08;;;;
2020/12/24 03:42:48;;;;;;;6.400001;4.699999;;;;;;;19.88;55.1875;94807.08;;;;
2020/12/24 03:43:48;;;;;;;6.700001;4.6;;;;;;;19.84;55.26953;94821.54;;;;
2020/12/24 03:44:49;;;;;;;6.700001;4.6;;;;;;;19.84;55.26953;94821.54;;;;
2020/12/24 03:45:49;;;;;;;6.700001;4.6;;;;;;;19.84;55.26953;94821.54;;;;
2020/12/24 03:46:50;;;;;;;6.700001;4.6;;;;;;;19.84;55.26953;94821.54;;;;
2020/12/24 03:47:50;;;;;;;6.700001;4.6;;;;;;;19.84;55.26953;94821.54;;;;
2020/12/24 03:48:51;;;;;;;6.700001;4.6;;;;;;;19.84;55.26953;94821.54;;;;
2020/12/24 03:49:51;;;;;;;6.700001;4.6;;;;;;;19.84;55.26953;94821.54;;;;
2020/12/24 03:50:52;;;;;;;6.700001;4.6;;;;;;;19.84;55.26953;94821.54;;;;
2020/12/24 03:51:53;;;;;;;6.700001;4.6;;;;;;;19.84;55.26953;94821.54;;;;
2020/12/24 03:52:53;;;;;;;6.700001;4.6;;;;;;;19.84;55.26953;94821.54;;;;
2020/12/24 03:53:54;;;;;;;6.700001;4.6;;;;;;;19.84;55.26953;94821.54;;;;
2020/12/24 03:54:54;;;;;;;6.25;4.65;;;;;;;19.86;55.20605;94818.52;;;;
2020/12/24 03:55:55;;;;;;;6.25;4.65;;;;;;;19.86;55.20605;94818.52;;;;
2020/12/24 03:56:55;;;;;;;6.25;4.65;;;;;;;19.86;55.20605;94818.52;;;;
2020/12/24 03:57:56;;;;;;;6.25;4.65;;;;;;;19.86;55.20605;94818.52;;;;
2020/12/24 03:58:56;;;;;;;6.25;4.65;;;;;;;19.86;55.20605;94818.52;;;;
2020/12/24 03:59:56;;;;;;;6.25;4.65;;;;;;;19.86;55.20605;94818.52;;;;
2020/12/24 04:00:57;;;;;;;6.25;4.65;;;;;;;19.86;55.20605;94818.52;;;;
2020/12/24 04:01:57;;;;;;;6.25;4.65;;;;;;;19.86;55.20605;94818.52;;;;
2020/12/24 04:02:58;;;;;;;6.25;4.65;;;;;;;19.86;55.20605;94818.52;;;;
2020/12/24 04:03:58;;;;;;;6.25;4.65;;;;;;;19.86;55.20605;94818.52;;;;
2020/12/24 04:04:59;;;;;;;5.749999;4.599999;;;;;;;19.83;55.22461;94821.85;;;;
2020/12/24 04:05:59;;;;;;;5.749999;4.599999;;;;;;;19.83;55.22461;94821.85;;;;
2020/12/24 04:07:00;;;;;;;5.749999;4.599999;;;;;;;19.83;55.22461;94821.85;;;;
2020/12/24 04:08:00;;;;;;;5.749999;4.599999;;;;;;;19.83;55.22461;94821.85;;;;
2020/12/24 04:09:01;;;;;;;5.749999;4.599999;;;;;;;19.83;55.22461;94821.85;;;;
2020/12/24 04:10:01;;;;;;;5.749999;4.599999;;;;;;;19.83;55.22461;94821.85;;;;
2020/12/24 04:11:02;;;;;;;5.749999;4.599999;;;;;;;19.83;55.22461;94821.85;;;;
2020/12/24 04:12:03;;;;;;;5.749999;4.599999;;;;;;;19.83;55.22461;94821.85;;;;
2020/12/24 04:13:03;;;;;;;5.749999;4.599999;;;;;;;19.83;55.22461;94821.85;;;;
2020/12/24 04:14:04;;;;;;;5.749999;4.599999;;;;;;;19.83;55.22461;94821.85;;;;
2020/12/24 04:15:04;;;;;;;5.749999;4.599999;;;;;;;19.83;55.22461;94821.85;;;;
2020/12/24 04:16:05;;;;;;;6.05;4.649999;;;;;;;19.86;55.19531;94829.07;;;;
2020/12/24 04:17:05;;;;;;;6.05;4.649999;;;;;;;19.86;55.19531;94829.07;;;;
2020/12/24 04:18:06;;;;;;;6.05;4.649999;;;;;;;19.86;55.19531;94829.07;;;;
2020/12/24 04:19:06;;;;;;;6.05;4.649999;;;;;;;19.86;55.19531;94829.07;;;;
2020/12/24 04:20:07;;;;;;;6.05;4.649999;;;;;;;19.86;55.19531;94829.07;;;;
2020/12/24 04:21:07;;;;;;;6.05;4.649999;;;;;;;19.86;55.19531;94829.07;;;;
2020/12/24 04:22:08;;;;;;;6.05;4.649999;;;;;;;19.86;55.19531;94829.07;;;;
2020/12/24 04:23:08;;;;;;;6.05;4.649999;;;;;;;19.86;55.19531;94829.07;;;;
2020/12/24 04:24:09;;;;;;;6.05;4.649999;;;;;;;19.86;55.19531;94829.07;;;;
2020/12/24 04:25:09;;;;;;;6.05;4.649999;;;;;;;19.86;55.19531;94829.07;;;;
2020/12/24 04:26:10;;;;;;;5.55;4.199999;;;;;;;19.82;55.34473;94849.42;;;;
2020/12/24 04:27:18;;;;;;;5.55;4.199999;;;;;;;19.82;55.34473;94849.42;;;;
2020/12/24 04:28:18;;;;;;;5.55;4.199999;;;;;;;19.82;55.34473;94849.42;;;;
2020/12/24 04:29:19;;;;;;;5.55;4.199999;;;;;;;19.82;55.34473;94849.42;;;;
2020/12/24 04:30:19;;;;;;;5.55;4.199999;;;;;;;19.82;55.34473;94849.42;;;;
2020/12/24 04:31:19;;;;;;;5.55;4.199999;;;;;;;19.82;55.34473;94849.42;;;;
2020/12/24 04:32:20;;;;;;;5.55;4.199999;;;;;;;19.82;55.34473;94849.42;;;;
2020/12/24 04:33:21;;;;;;;5.55;4.199999;;;;;;;19.82;55.34473;94849.42;;;;
2020/12/24 04:34:21;;;;;;;5.55;4.199999;;;;;;;19.82;55.34473;94849.42;;;;
2020/12/24 04:35:21;;;;;;;5.55;4.199999;;;;;;;19.82;55.34473;94849.42;;;;
2020/12/24 04:36:22;;;;;;;5.55;4.199999;;;;;;;19.82;55.34473;94849.42;;;;
2020/12/24 04:37:22;;;;;;;5.45;4.15;;;;;;;19.84;55.2041;94862.64;;;;
2020/12/24 04:38:23;;;;;;;5.45;4.15;;;;;;;19.84;55.2041;94862.64;;;;
2020/12/24 04:39:24;;;;;;;5.45;4.15;;;;;;;19.84;55.2041;94862.64;;;;
2020/12/24 04:40:24;;;;;;;5.45;4.15;;;;;;;19.84;55.2041;94862.64;;;;
2020/12/24 04:41:25;;;;;;;5.45;4.15;;;;;;;19.84;55.2041;94862.64;;;;
2020/12/24 04:42:25;;;;;;;5.45;4.15;;;;;;;19.84;55.2041;94862.64;;;;
2020/12/24 04:43:27;;;;;;;5.45;4.15;;;;;;;19.84;55.2041;94862.64;;;;
2020/12/24 04:44:28;;;;;;;5.45;4.15;;;;;;;19.84;55.2041;94862.64;;;;
2020/12/24 04:45:29;;;;;;;5.45;4.15;;;;;;;19.84;55.2041;94862.64;;;;
2020/12/24 04:46:31;;;;;;;5.45;4.15;;;;;;;19.84;55.2041;94862.64;;;;
2020/12/24 04:47:34;;;;;;;5.7;4.05;;;;;;;19.81;55.28809;94856.96;;;;
2020/12/24 04:48:38;;;;;;;5.7;4.05;;;;;;;19.81;55.28809;94856.96;;;;
2020/12/24 04:49:39;;;;;;;5.7;4.05;;;;;;;19.81;55.28809;94856.96;;;;
2020/12/24 04:50:40;;;;;;;5.7;4.05;;;;;;;19.81;55.28809;94856.96;;;;
2020/12/24 04:51:43;;;;;;;5.7;4.05;;;;;;;19.81;55.28809;94856.96;;;;
2020/12/24 04:52:46;;;;;;;5.7;4.05;;;;;;;19.81;55.28809;94856.96;;;;
2020/12/24 04:53:47;;;;;;;5.7;4.05;;;;;;;19.81;55.28809;94856.96;;;;
2020/12/24 04:54:48;;;;;;;5.7;4.05;;;;;;;19.81;55.28809;94856.96;;;;
2020/12/24 04:55:49;;;;;;;5.7;4.05;;;;;;;19.81;55.28809;94856.96;;;;
2020/12/24 04:56:50;;;;;;;5.7;4.05;;;;;;;19.81;55.28809;94856.96;;;;
2020/12/24 04:57:50;;;;;;;5.7;4.05;;;;;;;19.81;55.28809;94856.96;;;;
2020/12/24 04:58:51;;;;;;;5.5;3.8;;;;;;;19.84;55.21484;94861.44;;;;
2020/12/24 04:59:53;;;;;;;5.5;3.8;;;;;;;19.84;55.21484;94861.44;;;;
2020/12/24 05:00:54;;;;;;;5.5;3.8;;;;;;;19.84;55.21484;94861.44;;;;
2020/12/24 05:01:55;;;;;;;5.5;3.8;;;;;;;19.84;55.21484;94861.44;;;;
2020/12/24 05:02:55;;;;;;;5.5;3.8;;;;;;;19.84;55.21484;94861.44;;;;
2020/12/24 05:04:04;;;;;;;5.5;3.8;;;;;;;19.84;55.21484;94861.44;;;;
2020/12/24 05:05:05;;;;;;;5.5;3.8;;;;;;;19.84;55.21484;94861.44;;;;
2020/12/24 05:06:05;;;;;;;5.5;3.8;;;;;;;19.84;55.21484;94861.44;;;;
2020/12/24 05:07:06;;;;;;;5.5;3.8;;;;;;;19.84;55.21484;94861.44;;;;
2020/12/24 05:08:08;;;;;;;5.5;3.8;;;;;;;19.84;55.21484;94861.44;;;;
2020/12/24 05:09:09;;;;;;;4.8;3.900001;;;;;;;19.8;55.13379;94864.39;;;;
2020/12/24 05:10:10;;;;;;;4.8;3.900001;;;;;;;19.8;55.13379;94864.39;;;;
2020/12/24 05:11:12;;;;;;;4.8;3.900001;;;;;;;19.8;55.13379;94864.39;;;;
2020/12/24 05:12:13;;;;;;;4.8;3.900001;;;;;;;19.8;55.13379;94864.39;;;;
2020/12/24 05:13:25;;;;;;;4.8;3.900001;;;;;;;19.8;55.13379;94864.39;;;;
2020/12/24 05:14:26;;;;;;;4.8;3.900001;;;;;;;19.8;55.13379;94864.39;;;;
2020/12/24 05:15:28;;;;;;;4.8;3.900001;;;;;;;19.8;55.13379;94864.39;;;;
2020/12/24 05:16:30;;;;;;;4.8;3.900001;;;;;;;19.8;55.13379;94864.39;;;;
2020/12/24 05:17:30;;;;;;;4.8;3.900001;;;;;;;19.8;55.13379;94864.39;;;;
2020/12/24 05:18:31;;;;;;;4.8;3.900001;;;;;;;19.8;55.13379;94864.39;;;;
2020/12/24 05:19:31;;;;;;;4.1;3.4;;;;;;;19.89;55.03418;94878.19;;;;
2020/12/24 05:20:33;;;;;;;4.1;3.4;;;;;;;19.89;55.03418;94878.19;;;;
2020/12/24 05:21:39;;;;;;;4.1;3.4;;;;;;;19.89;55.03418;94878.19;;;;
2020/12/24 05:22:39;;;;;;;4.1;3.4;;;;;;;19.89;55.03418;94878.19;;;;
2020/12/24 05:23:40;;;;;;;4.1;3.4;;;;;;;19.89;55.03418;94878.19;;;;
2020/12/24 05:24:40;;;;;;;4.1;3.4;;;;;;;19.89;55.03418;94878.19;;;;
2020/12/24 05:25:41;;;;;;;4.1;3.4;;;;;;;19.89;55.03418;94878.19;;;;
2020/12/24 05:26:43;;;;;;;4.1;3.4;;;;;;;19.89;55.03418;94878.19;;;;
2020/12/24 05:27:43;;;;;;;4.1;3.4;;;;;;;19.89;55.03418;94878.19;;;;
2020/12/24 05:28:44;;;;;;;4.1;3.4;;;;;;;19.89;55.03418;94878.19;;;;
2020/12/24 05:29:45;;;;;;;4.1;3.4;;;;;;;19.89;55.03418;94878.19;;;;
2020/12/24 05:30:48;;;;;;;5;3.7;;;;;;;19.89;55.16602;94883.67;;;;
2020/12/24 05:31:49;;;;;;;5;3.7;;;;;;;19.89;55.16602;94883.67;;;;
2020/12/24 05:32:52;;;;;;;5;3.7;;;;;;;19.89;55.16602;94883.67;;;;
2020/12/24 05:33:53;;;;;;;5;3.7;;;;;;;19.89;55.16602;94883.67;;;;
2020/12/24 05:34:53;;;;;;;5;3.7;;;;;;;19.89;55.16602;94883.67;;;;
2020/12/24 05:36:04;;;;;;;5;3.7;;;;;;;19.89;55.16602;94883.67;;;;
2020/12/24 05:37:21;;;;;;;5;3.7;;;;;;;19.89;55.16602;94883.67;;;;
2020/12/24 05:38:24;;;;;;;5;3.7;;;;;;;19.89;55.16602;94883.67;;;;
2020/12/24 05:39:32;;;;;;;5;3.7;;;;;;;19.89;55.16602;94883.67;;;;
2020/12/24 05:40:33;;;;;;;5;3.7;;;;;;;19.89;55.16602;94883.67;;;;
2020/12/24 05:41:34;;;;;;;4.3;3.4;;;;;;;19.94;55.11621;94893.16;;;;
2020/12/24 05:42:37;;;;;;;4.3;3.4;;;;;;;19.94;55.11621;94893.16;;;;
2020/12/24 05:43:46;;;;;;;4.3;3.4;;;;;;;19.94;55.11621;94893.16;;;;